sensor_id;sensor_type;location;lat;lon;timestamp;P1;durP1;ratioP1;P2;durP2;ratioP2
5391;SDS011;2719;53.624;9.786;2023-11-22T00:00:34;4.40;;;1.00;;
5391;SDS011;2719;53.624;9.786;2023-11-22T00:03:01;2.00;;;0.80;;
5391;SDS011;2719;53.624;9.786;2023-11-22T00:05:27;2.70;;;0.90;;
5391;SDS011;2719;53.624;9.786;2023-11-22T00:07:54;2.47;;;1.00;;
5391;SDS011;2719;53.624;9.786;2023-11-22T00:10:22;2.87;;;0.87;;
5391;SDS011;2719;53.624;9.786;2023-11-22T00:12:49;1.87;;;0.80;;
5391;SDS011;2719;53.624;9.786;2023-11-22T00:15:15;1.93;;;0.83;;
5391;SDS011;2719;53.624;9.786;2023-11-22T00:17:44;2.90;;;0.80;;
5391;SDS011;2719;53.624;9.786;2023-11-22T00:20:11;1.67;;;0.70;;
5391;SDS011;2719;53.624;9.786;2023-11-22T00:22:38;3.73;;;1.00;;
5391;SDS011;2719;53.624;9.786;2023-11-22T00:25:05;1.90;;;0.87;;
5391;SDS011;2719;53.624;9.786;2023-11-22T00:27:33;2.67;;;0.70;;
5391;SDS011;2719;53.624;9.786;2023-11-22T00:30:01;2.33;;;0.80;;
5391;SDS011;2719;53.624;9.786;2023-11-22T00:32:29;2.70;;;0.70;;
5391;SDS011;2719;53.624;9.786;2023-11-22T00:34:57;3.37;;;1.00;;
5391;SDS011;2719;53.624;9.786;2023-11-22T00:37:24;1.90;;;0.93;;
5391;SDS011;2719;53.624;9.786;2023-11-22T00:39:50;2.57;;;0.80;;
5391;SDS011;2719;53.624;9.786;2023-11-22T00:42:17;1.87;;;0.80;;
5391;SDS011;2719;53.624;9.786;2023-11-22T00:44:45;2.80;;;0.90;;
5391;SDS011;2719;53.624;9.786;2023-11-22T00:47:11;1.27;;;0.60;;
5391;SDS011;2719;53.624;9.786;2023-11-22T00:49:38;3.93;;;0.70;;
5391;SDS011;2719;53.624;9.786;2023-11-22T00:52:06;3.00;;;0.70;;
5391;SDS011;2719;53.624;9.786;2023-11-22T00:54:33;3.63;;;0.70;;
5391;SDS011;2719;53.624;9.786;2023-11-22T00:57:00;4.17;;;1.10;;
5391;SDS011;2719;53.624;9.786;2023-11-22T00:59:27;3.73;;;0.83;;
5391;SDS011;2719;53.624;9.786;2023-11-22T01:01:54;1.97;;;1.00;;
5391;SDS011;2719;53.624;9.786;2023-11-22T01:04:20;2.07;;;0.90;;
5391;SDS011;2719;53.624;9.786;2023-11-22T01:06:47;2.67;;;0.70;;
5391;SDS011;2719;53.624;9.786;2023-11-22T01:09:15;5.37;;;1.00;;
5391;SDS011;2719;53.624;9.786;2023-11-22T01:11:43;2.50;;;0.90;;
5391;SDS011;2719;53.624;9.786;2023-11-22T01:14:10;6.10;;;0.60;;
5391;SDS011;2719;53.624;9.786;2023-11-22T01:16:36;1.60;;;0.77;;
5391;SDS011;2719;53.624;9.786;2023-11-22T01:19:03;3.03;;;0.90;;
5391;SDS011;2719;53.624;9.786;2023-11-22T01:21:30;4.13;;;0.90;;
5391;SDS011;2719;53.624;9.786;2023-11-22T01:23:56;4.27;;;0.80;;
5391;SDS011;2719;53.624;9.786;2023-11-22T01:26:24;3.20;;;1.27;;
5391;SDS011;2719;53.624;9.786;2023-11-22T01:28:51;6.23;;;1.00;;
5391;SDS011;2719;53.624;9.786;2023-11-22T01:31:17;4.30;;;0.90;;
5391;SDS011;2719;53.624;9.786;2023-11-22T01:33:45;4.20;;;0.80;;
5391;SDS011;2719;53.624;9.786;2023-11-22T01:36:13;1.80;;;0.70;;
5391;SDS011;2719;53.624;9.786;2023-11-22T01:38:41;2.37;;;0.70;;
5391;SDS011;2719;53.624;9.786;2023-11-22T01:41:09;2.40;;;0.67;;
5391;SDS011;2719;53.624;9.786;2023-11-22T01:43:39;3.73;;;0.70;;
5391;SDS011;2719;53.624;9.786;2023-11-22T01:46:06;1.73;;;0.70;;
5391;SDS011;2719;53.624;9.786;2023-11-22T01:48:33;2.23;;;0.70;;
5391;SDS011;2719;53.624;9.786;2023-11-22T01:51:00;1.67;;;0.70;;
5391;SDS011;2719;53.624;9.786;2023-11-22T01:53:27;2.97;;;0.87;;
5391;SDS011;2719;53.624;9.786;2023-11-22T01:55:54;3.10;;;0.90;;
5391;SDS011;2719;53.624;9.786;2023-11-22T01:58:21;4.03;;;0.83;;
5391;SDS011;2719;53.624;9.786;2023-11-22T02:00:50;2.70;;;1.00;;
5391;SDS011;2719;53.624;9.786;2023-11-22T02:03:17;4.00;;;1.03;;
5391;SDS011;2719;53.624;9.786;2023-11-22T02:05:44;3.27;;;0.90;;
5391;SDS011;2719;53.624;9.786;2023-11-22T02:08:11;1.90;;;0.70;;
5391;SDS011;2719;53.624;9.786;2023-11-22T02:10:39;3.00;;;0.80;;
5391;SDS011;2719;53.624;9.786;2023-11-22T02:13:06;6.27;;;0.77;;
5391;SDS011;2719;53.624;9.786;2023-11-22T02:15:34;2.33;;;0.90;;
5391;SDS011;2719;53.624;9.786;2023-11-22T02:18:02;1.73;;;0.60;;
5391;SDS011;2719;53.624;9.786;2023-11-22T02:20:30;3.77;;;0.90;;
5391;SDS011;2719;53.624;9.786;2023-11-22T02:23:02;2.13;;;0.80;;
5391;SDS011;2719;53.624;9.786;2023-11-22T02:25:33;3.17;;;0.90;;
5391;SDS011;2719;53.624;9.786;2023-11-22T02:28:00;4.53;;;0.83;;
5391;SDS011;2719;53.624;9.786;2023-11-22T02:30:27;1.77;;;0.60;;
5391;SDS011;2719;53.624;9.786;2023-11-22T02:32:54;1.93;;;0.80;;
5391;SDS011;2719;53.624;9.786;2023-11-22T02:35:20;4.90;;;0.60;;
5391;SDS011;2719;53.624;9.786;2023-11-22T02:37:47;2.63;;;0.80;;
5391;SDS011;2719;53.624;9.786;2023-11-22T02:40:16;3.27;;;0.80;;
5391;SDS011;2719;53.624;9.786;2023-11-22T02:42:44;1.40;;;0.60;;
5391;SDS011;2719;53.624;9.786;2023-11-22T02:45:11;2.03;;;0.80;;
5391;SDS011;2719;53.624;9.786;2023-11-22T02:47:39;3.77;;;1.00;;
5391;SDS011;2719;53.624;9.786;2023-11-22T02:50:06;2.33;;;0.60;;
5391;SDS011;2719;53.624;9.786;2023-11-22T02:52:33;2.57;;;1.03;;
5391;SDS011;2719;53.624;9.786;2023-11-22T02:54:59;3.77;;;1.00;;
5391;SDS011;2719;53.624;9.786;2023-11-22T02:57:27;4.53;;;1.13;;
5391;SDS011;2719;53.624;9.786;2023-11-22T02:59:54;1.73;;;0.90;;
5391;SDS011;2719;53.624;9.786;2023-11-22T03:02:21;2.07;;;0.80;;
5391;SDS011;2719;53.624;9.786;2023-11-22T03:04:49;3.20;;;1.00;;
5391;SDS011;2719;53.624;9.786;2023-11-22T03:07:15;2.40;;;0.80;;
5391;SDS011;2719;53.624;9.786;2023-11-22T03:09:43;13.53;;;2.97;;
5391;SDS011;2719;53.624;9.786;2023-11-22T03:12:11;2.50;;;0.90;;
5391;SDS011;2719;53.624;9.786;2023-11-22T03:14:39;5.50;;;1.10;;
5391;SDS011;2719;53.624;9.786;2023-11-22T03:17:05;6.87;;;0.97;;
5391;SDS011;2719;53.624;9.786;2023-11-22T03:19:33;3.07;;;1.43;;
5391;SDS011;2719;53.624;9.786;2023-11-22T03:21:59;1.70;;;0.80;;
5391;SDS011;2719;53.624;9.786;2023-11-22T03:24:27;3.37;;;0.97;;
5391;SDS011;2719;53.624;9.786;2023-11-22T03:26:54;1.63;;;0.60;;
5391;SDS011;2719;53.624;9.786;2023-11-22T03:29:23;2.60;;;0.80;;
5391;SDS011;2719;53.624;9.786;2023-11-22T03:31:52;9.77;;;1.30;;
5391;SDS011;2719;53.624;9.786;2023-11-22T03:34:18;2.90;;;0.80;;
5391;SDS011;2719;53.624;9.786;2023-11-22T03:36:45;2.83;;;0.83;;
5391;SDS011;2719;53.624;9.786;2023-11-22T03:39:13;3.50;;;1.00;;
5391;SDS011;2719;53.624;9.786;2023-11-22T03:41:41;2.63;;;1.07;;
5391;SDS011;2719;53.624;9.786;2023-11-22T03:44:08;3.27;;;1.10;;
5391;SDS011;2719;53.624;9.786;2023-11-22T03:46:34;3.73;;;0.80;;
5391;SDS011;2719;53.624;9.786;2023-11-22T03:49:03;2.77;;;1.10;;
5391;SDS011;2719;53.624;9.786;2023-11-22T03:51:29;1.80;;;0.80;;
5391;SDS011;2719;53.624;9.786;2023-11-22T03:53:56;4.47;;;1.63;;
5391;SDS011;2719;53.624;9.786;2023-11-22T03:56:22;3.13;;;0.80;;
5391;SDS011;2719;53.624;9.786;2023-11-22T03:58:49;4.07;;;0.83;;
5391;SDS011;2719;53.624;9.786;2023-11-22T04:01:16;2.20;;;1.00;;
5391;SDS011;2719;53.624;9.786;2023-11-22T04:03:43;4.57;;;0.70;;
5391;SDS011;2719;53.624;9.786;2023-11-22T04:06:11;2.27;;;0.80;;
5391;SDS011;2719;53.624;9.786;2023-11-22T04:08:38;1.80;;;1.00;;
5391;SDS011;2719;53.624;9.786;2023-11-22T04:11:05;3.13;;;0.70;;
5391;SDS011;2719;53.624;9.786;2023-11-22T04:13:32;3.50;;;1.30;;
5391;SDS011;2719;53.624;9.786;2023-11-22T04:15:58;6.97;;;1.07;;
5391;SDS011;2719;53.624;9.786;2023-11-22T04:18:25;4.60;;;1.00;;
5391;SDS011;2719;53.624;9.786;2023-11-22T04:20:52;4.80;;;1.10;;
5391;SDS011;2719;53.624;9.786;2023-11-22T04:23:20;14.03;;;1.40;;
5391;SDS011;2719;53.624;9.786;2023-11-22T04:25:46;3.80;;;1.20;;
5391;SDS011;2719;53.624;9.786;2023-11-22T04:28:14;8.53;;;1.27;;
5391;SDS011;2719;53.624;9.786;2023-11-22T04:30:41;2.83;;;1.20;;
5391;SDS011;2719;53.624;9.786;2023-11-22T04:33:07;8.67;;;1.30;;
5391;SDS011;2719;53.624;9.786;2023-11-22T04:35:34;4.60;;;1.27;;
5391;SDS011;2719;53.624;9.786;2023-11-22T04:38:02;4.07;;;1.73;;
5391;SDS011;2719;53.624;9.786;2023-11-22T04:40:31;3.00;;;1.20;;
5391;SDS011;2719;53.624;9.786;2023-11-22T04:42:57;2.90;;;1.10;;
5391;SDS011;2719;53.624;9.786;2023-11-22T04:45:24;4.30;;;1.50;;
5391;SDS011;2719;53.624;9.786;2023-11-22T04:47:51;1.93;;;0.80;;
5391;SDS011;2719;53.624;9.786;2023-11-22T04:50:17;2.23;;;0.90;;
5391;SDS011;2719;53.624;9.786;2023-11-22T04:52:44;3.43;;;1.20;;
5391;SDS011;2719;53.624;9.786;2023-11-22T04:55:11;4.70;;;1.10;;
5391;SDS011;2719;53.624;9.786;2023-11-22T04:57:38;2.87;;;1.20;;
5391;SDS011;2719;53.624;9.786;2023-11-22T05:00:06;2.63;;;1.10;;
5391;SDS011;2719;53.624;9.786;2023-11-22T05:02:33;4.50;;;0.87;;
5391;SDS011;2719;53.624;9.786;2023-11-22T05:05:00;2.93;;;1.20;;
5391;SDS011;2719;53.624;9.786;2023-11-22T05:07:27;3.40;;;1.30;;
5391;SDS011;2719;53.624;9.786;2023-11-22T05:09:54;4.63;;;1.20;;
5391;SDS011;2719;53.624;9.786;2023-11-22T05:12:21;3.33;;;0.83;;
5391;SDS011;2719;53.624;9.786;2023-11-22T05:14:49;17.50;;;1.40;;
5391;SDS011;2719;53.624;9.786;2023-11-22T05:17:15;5.60;;;1.63;;
5391;SDS011;2719;53.624;9.786;2023-11-22T05:19:42;3.90;;;1.30;;
5391;SDS011;2719;53.624;9.786;2023-11-22T05:22:09;6.30;;;2.03;;
5391;SDS011;2719;53.624;9.786;2023-11-22T05:24:35;4.20;;;1.73;;
5391;SDS011;2719;53.624;9.786;2023-11-22T05:27:05;9.10;;;3.23;;
5391;SDS011;2719;53.624;9.786;2023-11-22T05:29:32;8.03;;;3.33;;
5391;SDS011;2719;53.624;9.786;2023-11-22T05:32:01;9.63;;;3.20;;
5391;SDS011;2719;53.624;9.786;2023-11-22T05:34:28;4.67;;;2.10;;
5391;SDS011;2719;53.624;9.786;2023-11-22T05:36:55;3.50;;;1.40;;
5391;SDS011;2719;53.624;9.786;2023-11-22T05:39:21;4.30;;;1.67;;
5391;SDS011;2719;53.624;9.786;2023-11-22T05:41:49;8.53;;;2.17;;
5391;SDS011;2719;53.624;9.786;2023-11-22T05:44:16;6.47;;;2.40;;
5391;SDS011;2719;53.624;9.786;2023-11-22T05:46:43;10.40;;;4.23;;
5391;SDS011;2719;53.624;9.786;2023-11-22T05:49:11;7.63;;;3.17;;
5391;SDS011;2719;53.624;9.786;2023-11-22T05:51:37;6.60;;;2.27;;
5391;SDS011;2719;53.624;9.786;2023-11-22T05:54:04;6.87;;;2.67;;
5391;SDS011;2719;53.624;9.786;2023-11-22T05:56:31;6.93;;;2.13;;
5391;SDS011;2719;53.624;9.786;2023-11-22T05:58:58;9.37;;;2.80;;
5391;SDS011;2719;53.624;9.786;2023-11-22T06:01:25;6.87;;;2.30;;
5391;SDS011;2719;53.624;9.786;2023-11-22T06:03:52;6.33;;;2.63;;
5391;SDS011;2719;53.624;9.786;2023-11-22T06:06:20;6.13;;;2.77;;
5391;SDS011;2719;53.624;9.786;2023-11-22T06:08:47;7.80;;;2.90;;
5391;SDS011;2719;53.624;9.786;2023-11-22T06:11:14;11.23;;;3.00;;
5391;SDS011;2719;53.624;9.786;2023-11-22T06:13:41;5.30;;;2.40;;
5391;SDS011;2719;53.624;9.786;2023-11-22T06:16:07;9.00;;;2.80;;
5391;SDS011;2719;53.624;9.786;2023-11-22T06:18:34;6.60;;;1.80;;
5391;SDS011;2719;53.624;9.786;2023-11-22T06:21:05;7.60;;;2.50;;
5391;SDS011;2719;53.624;9.786;2023-11-22T06:23:33;5.07;;;2.30;;
5391;SDS011;2719;53.624;9.786;2023-11-22T06:25:59;5.53;;;1.93;;
5391;SDS011;2719;53.624;9.786;2023-11-22T06:28:26;6.43;;;2.30;;
5391;SDS011;2719;53.624;9.786;2023-11-22T06:30:53;9.40;;;2.13;;
5391;SDS011;2719;53.624;9.786;2023-11-22T06:33:20;2.97;;;1.50;;
5391;SDS011;2719;53.624;9.786;2023-11-22T06:35:47;12.83;;;2.10;;
5391;SDS011;2719;53.624;9.786;2023-11-22T06:38:13;5.43;;;2.47;;
5391;SDS011;2719;53.624;9.786;2023-11-22T06:40:40;6.53;;;1.80;;
5391;SDS011;2719;53.624;9.786;2023-11-22T06:43:07;5.60;;;1.60;;
5391;SDS011;2719;53.624;9.786;2023-11-22T06:45:34;5.80;;;1.90;;
5391;SDS011;2719;53.624;9.786;2023-11-22T06:48:01;6.87;;;2.47;;
5391;SDS011;2719;53.624;9.786;2023-11-22T06:50:27;4.90;;;1.93;;
5391;SDS011;2719;53.624;9.786;2023-11-22T06:52:54;5.10;;;2.33;;
5391;SDS011;2719;53.624;9.786;2023-11-22T06:55:20;3.20;;;1.53;;
5391;SDS011;2719;53.624;9.786;2023-11-22T06:57:48;4.67;;;1.60;;
5391;SDS011;2719;53.624;9.786;2023-11-22T07:00:16;3.73;;;1.50;;
5391;SDS011;2719;53.624;9.786;2023-11-22T07:02:43;4.80;;;1.67;;
5391;SDS011;2719;53.624;9.786;2023-11-22T07:05:10;4.33;;;1.80;;
5391;SDS011;2719;53.624;9.786;2023-11-22T07:07:37;3.60;;;1.70;;
5391;SDS011;2719;53.624;9.786;2023-11-22T07:10:04;5.97;;;1.80;;
5391;SDS011;2719;53.624;9.786;2023-11-22T07:12:32;6.73;;;1.97;;
5391;SDS011;2719;53.624;9.786;2023-11-22T07:15:00;3.90;;;1.43;;
5391;SDS011;2719;53.624;9.786;2023-11-22T07:17:27;3.87;;;1.73;;
5391;SDS011;2719;53.624;9.786;2023-11-22T07:19:54;5.63;;;1.80;;
5391;SDS011;2719;53.624;9.786;2023-11-22T07:22:22;5.13;;;2.17;;
5391;SDS011;2719;53.624;9.786;2023-11-22T07:24:49;4.03;;;1.47;;
5391;SDS011;2719;53.624;9.786;2023-11-22T07:27:16;7.37;;;2.80;;
5391;SDS011;2719;53.624;9.786;2023-11-22T07:29:43;6.30;;;2.70;;
5391;SDS011;2719;53.624;9.786;2023-11-22T07:32:12;6.10;;;2.30;;
5391;SDS011;2719;53.624;9.786;2023-11-22T07:34:40;6.47;;;2.33;;
5391;SDS011;2719;53.624;9.786;2023-11-22T07:37:07;8.03;;;2.50;;
5391;SDS011;2719;53.624;9.786;2023-11-22T07:39:34;6.60;;;2.70;;
5391;SDS011;2719;53.624;9.786;2023-11-22T07:42:01;5.30;;;2.70;;
5391;SDS011;2719;53.624;9.786;2023-11-22T07:44:28;6.63;;;2.90;;
5391;SDS011;2719;53.624;9.786;2023-11-22T07:46:57;5.10;;;2.43;;
5391;SDS011;2719;53.624;9.786;2023-11-22T07:49:25;3.67;;;2.03;;
5391;SDS011;2719;53.624;9.786;2023-11-22T07:51:52;5.40;;;2.10;;
5391;SDS011;2719;53.624;9.786;2023-11-22T07:54:19;3.90;;;1.97;;
5391;SDS011;2719;53.624;9.786;2023-11-22T07:56:47;6.37;;;2.23;;
5391;SDS011;2719;53.624;9.786;2023-11-22T07:59:14;5.73;;;2.43;;
5391;SDS011;2719;53.624;9.786;2023-11-22T08:01:41;4.17;;;1.77;;
5391;SDS011;2719;53.624;9.786;2023-11-22T08:04:09;8.13;;;2.03;;
5391;SDS011;2719;53.624;9.786;2023-11-22T08:06:37;5.43;;;1.93;;
5391;SDS011;2719;53.624;9.786;2023-11-22T08:09:03;12.20;;;2.10;;
5391;SDS011;2719;53.624;9.786;2023-11-22T08:11:30;5.70;;;2.27;;
5391;SDS011;2719;53.624;9.786;2023-11-22T08:13:57;8.80;;;2.57;;
5391;SDS011;2719;53.624;9.786;2023-11-22T08:16:24;3.80;;;1.47;;
5391;SDS011;2719;53.624;9.786;2023-11-22T08:18:51;5.30;;;2.30;;
5391;SDS011;2719;53.624;9.786;2023-11-22T08:21:18;4.83;;;1.60;;
5391;SDS011;2719;53.624;9.786;2023-11-22T08:23:46;4.37;;;1.83;;
5391;SDS011;2719;53.624;9.786;2023-11-22T08:26:13;3.90;;;2.00;;
5391;SDS011;2719;53.624;9.786;2023-11-22T08:28:40;6.80;;;2.20;;
5391;SDS011;2719;53.624;9.786;2023-11-22T08:31:07;4.20;;;1.70;;
5391;SDS011;2719;53.624;9.786;2023-11-22T08:33:34;6.20;;;1.77;;
5391;SDS011;2719;53.624;9.786;2023-11-22T08:36:01;7.50;;;2.00;;
5391;SDS011;2719;53.624;9.786;2023-11-22T08:38:29;8.80;;;2.40;;
5391;SDS011;2719;53.624;9.786;2023-11-22T08:41:00;4.70;;;1.80;;
5391;SDS011;2719;53.624;9.786;2023-11-22T08:43:27;6.47;;;1.57;;
5391;SDS011;2719;53.624;9.786;2023-11-22T08:45:54;3.83;;;1.80;;
5391;SDS011;2719;53.624;9.786;2023-11-22T08:48:20;5.03;;;1.80;;
5391;SDS011;2719;53.624;9.786;2023-11-22T08:50:47;6.00;;;1.80;;
5391;SDS011;2719;53.624;9.786;2023-11-22T08:53:14;3.50;;;1.80;;
5391;SDS011;2719;53.624;9.786;2023-11-22T08:55:42;4.30;;;1.33;;
5391;SDS011;2719;53.624;9.786;2023-11-22T08:58:11;7.77;;;2.20;;
5391;SDS011;2719;53.624;9.786;2023-11-22T09:00:38;6.07;;;2.53;;
5391;SDS011;2719;53.624;9.786;2023-11-22T09:03:06;7.80;;;1.87;;
5391;SDS011;2719;53.624;9.786;2023-11-22T09:05:33;4.70;;;2.17;;
5391;SDS011;2719;53.624;9.786;2023-11-22T09:08:01;4.50;;;2.00;;
5391;SDS011;2719;53.624;9.786;2023-11-22T09:10:29;8.80;;;1.60;;
5391;SDS011;2719;53.624;9.786;2023-11-22T09:12:55;5.30;;;2.30;;
5391;SDS011;2719;53.624;9.786;2023-11-22T09:15:25;4.60;;;2.17;;
5391;SDS011;2719;53.624;9.786;2023-11-22T09:17:54;5.87;;;1.50;;
5391;SDS011;2719;53.624;9.786;2023-11-22T09:20:21;6.77;;;1.87;;
5391;SDS011;2719;53.624;9.786;2023-11-22T09:22:49;4.83;;;1.57;;
5391;SDS011;2719;53.624;9.786;2023-11-22T09:25:17;4.17;;;1.67;;
5391;SDS011;2719;53.624;9.786;2023-11-22T09:27:47;5.53;;;2.43;;
5391;SDS011;2719;53.624;9.786;2023-11-22T09:30:19;8.57;;;2.40;;
5391;SDS011;2719;53.624;9.786;2023-11-22T09:33:01;7.20;;;2.57;;
5391;SDS011;2719;53.624;9.786;2023-11-22T09:35:28;5.73;;;2.40;;
5391;SDS011;2719;53.624;9.786;2023-11-22T09:37:56;4.60;;;2.10;;
5391;SDS011;2719;53.624;9.786;2023-11-22T09:40:23;6.07;;;2.43;;
5391;SDS011;2719;53.624;9.786;2023-11-22T09:42:52;4.57;;;2.00;;
5391;SDS011;2719;53.624;9.786;2023-11-22T09:45:20;4.47;;;2.10;;
5391;SDS011;2719;53.624;9.786;2023-11-22T09:47:47;5.03;;;1.83;;
5391;SDS011;2719;53.624;9.786;2023-11-22T09:50:17;4.60;;;2.60;;
5391;SDS011;2719;53.624;9.786;2023-11-22T09:52:49;4.00;;;1.73;;
5391;SDS011;2719;53.624;9.786;2023-11-22T09:55:18;5.20;;;2.20;;
5391;SDS011;2719;53.624;9.786;2023-11-22T09:57:47;6.33;;;1.70;;
5391;SDS011;2719;53.624;9.786;2023-11-22T10:00:14;4.40;;;1.67;;
5391;SDS011;2719;53.624;9.786;2023-11-22T10:02:43;5.20;;;1.77;;
5391;SDS011;2719;53.624;9.786;2023-11-22T10:05:10;5.67;;;1.97;;
5391;SDS011;2719;53.624;9.786;2023-11-22T10:07:39;7.47;;;2.13;;
5391;SDS011;2719;53.624;9.786;2023-11-22T10:10:06;7.20;;;1.90;;
5391;SDS011;2719;53.624;9.786;2023-11-22T10:12:36;4.87;;;1.97;;
5391;SDS011;2719;53.624;9.786;2023-11-22T10:15:11;5.60;;;2.43;;
5391;SDS011;2719;53.624;9.786;2023-11-22T10:17:40;4.20;;;1.80;;
5391;SDS011;2719;53.624;9.786;2023-11-22T10:20:13;4.70;;;2.00;;
5391;SDS011;2719;53.624;9.786;2023-11-22T10:22:45;4.30;;;2.13;;
5391;SDS011;2719;53.624;9.786;2023-11-22T10:25:13;11.93;;;2.30;;
5391;SDS011;2719;53.624;9.786;2023-11-22T10:27:43;4.47;;;1.70;;
5391;SDS011;2719;53.624;9.786;2023-11-22T10:30:11;4.30;;;1.83;;
5391;SDS011;2719;53.624;9.786;2023-11-22T10:32:39;8.17;;;2.70;;
5391;SDS011;2719;53.624;9.786;2023-11-22T10:35:07;6.30;;;1.90;;
5391;SDS011;2719;53.624;9.786;2023-11-22T10:37:34;3.50;;;1.93;;
5391;SDS011;2719;53.624;9.786;2023-11-22T10:40:03;5.03;;;1.33;;
5391;SDS011;2719;53.624;9.786;2023-11-22T10:42:31;10.10;;;2.30;;
5391;SDS011;2719;53.624;9.786;2023-11-22T10:44:59;5.33;;;1.53;;
5391;SDS011;2719;53.624;9.786;2023-11-22T10:47:28;3.00;;;1.20;;
5391;SDS011;2719;53.624;9.786;2023-11-22T10:49:56;5.93;;;1.73;;
5391;SDS011;2719;53.624;9.786;2023-11-22T10:52:26;3.80;;;1.70;;
5391;SDS011;2719;53.624;9.786;2023-11-22T10:54:55;3.73;;;1.03;;
5391;SDS011;2719;53.624;9.786;2023-11-22T10:57:29;12.50;;;3.40;;
5391;SDS011;2719;53.624;9.786;2023-11-22T11:00:00;4.20;;;1.23;;
5391;SDS011;2719;53.624;9.786;2023-11-22T11:02:33;2.70;;;1.20;;
5391;SDS011;2719;53.624;9.786;2023-11-22T11:05:08;5.40;;;0.90;;
5391;SDS011;2719;53.624;9.786;2023-11-22T11:07:42;3.03;;;1.40;;
5391;SDS011;2719;53.624;9.786;2023-11-22T11:10:14;2.33;;;1.17;;
5391;SDS011;2719;53.624;9.786;2023-11-22T11:12:44;3.30;;;1.43;;
5391;SDS011;2719;53.624;9.786;2023-11-22T11:15:11;4.60;;;1.37;;
5391;SDS011;2719;53.624;9.786;2023-11-22T11:17:39;3.00;;;1.33;;
5391;SDS011;2719;53.624;9.786;2023-11-22T11:20:06;5.07;;;1.30;;
5391;SDS011;2719;53.624;9.786;2023-11-22T11:22:38;6.40;;;1.73;;
5391;SDS011;2719;53.624;9.786;2023-11-22T11:25:05;9.93;;;1.30;;
5391;SDS011;2719;53.624;9.786;2023-11-22T11:27:33;4.03;;;1.13;;
5391;SDS011;2719;53.624;9.786;2023-11-22T11:30:02;3.80;;;1.37;;
5391;SDS011;2719;53.624;9.786;2023-11-22T11:33:03;4.63;;;1.40;;
5391;SDS011;2719;53.624;9.786;2023-11-22T11:35:37;6.10;;;1.00;;
5391;SDS011;2719;53.624;9.786;2023-11-22T11:38:04;3.63;;;1.20;;
5391;SDS011;2719;53.624;9.786;2023-11-22T11:40:34;3.70;;;1.10;;
5391;SDS011;2719;53.624;9.786;2023-11-22T11:43:01;4.93;;;1.20;;
5391;SDS011;2719;53.624;9.786;2023-11-22T11:45:29;2.10;;;0.83;;
5391;SDS011;2719;53.624;9.786;2023-11-22T11:47:56;3.07;;;1.10;;
5391;SDS011;2719;53.624;9.786;2023-11-22T11:50:23;1.57;;;0.73;;
5391;SDS011;2719;53.624;9.786;2023-11-22T11:52:50;2.37;;;0.70;;
5391;SDS011;2719;53.624;9.786;2023-11-22T11:55:16;2.60;;;0.90;;
5391;SDS011;2719;53.624;9.786;2023-11-22T11:57:43;5.03;;;1.20;;
5391;SDS011;2719;53.624;9.786;2023-11-22T12:00:12;5.80;;;1.30;;
5391;SDS011;2719;53.624;9.786;2023-11-22T12:02:41;3.53;;;0.80;;
5391;SDS011;2719;53.624;9.786;2023-11-22T12:05:08;2.60;;;1.03;;
5391;SDS011;2719;53.624;9.786;2023-11-22T12:07:35;10.33;;;1.40;;
5391;SDS011;2719;53.624;9.786;2023-11-22T12:10:01;5.07;;;1.20;;
5391;SDS011;2719;53.624;9.786;2023-11-22T12:12:31;3.73;;;0.80;;
5391;SDS011;2719;53.624;9.786;2023-11-22T12:14:57;3.33;;;1.00;;
5391;SDS011;2719;53.624;9.786;2023-11-22T12:17:25;4.03;;;0.87;;
5391;SDS011;2719;53.624;9.786;2023-11-22T12:19:53;2.83;;;0.90;;
5391;SDS011;2719;53.624;9.786;2023-11-22T12:22:36;2.27;;;0.70;;
5391;SDS011;2719;53.624;9.786;2023-11-22T12:25:04;3.60;;;0.80;;
5391;SDS011;2719;53.624;9.786;2023-11-22T12:27:31;2.57;;;0.87;;
5391;SDS011;2719;53.624;9.786;2023-11-22T12:29:58;2.67;;;0.80;;
5391;SDS011;2719;53.624;9.786;2023-11-22T12:32:25;2.50;;;0.87;;
5391;SDS011;2719;53.624;9.786;2023-11-22T12:34:54;2.23;;;0.70;;
5391;SDS011;2719;53.624;9.786;2023-11-22T12:37:21;2.07;;;0.90;;
5391;SDS011;2719;53.624;9.786;2023-11-22T12:39:49;5.37;;;1.27;;
5391;SDS011;2719;53.624;9.786;2023-11-22T12:42:17;1.90;;;0.73;;
5391;SDS011;2719;53.624;9.786;2023-11-22T12:44:47;2.90;;;0.93;;
5391;SDS011;2719;53.624;9.786;2023-11-22T12:47:14;1.70;;;0.60;;
5391;SDS011;2719;53.624;9.786;2023-11-22T12:49:44;3.80;;;0.70;;
5391;SDS011;2719;53.624;9.786;2023-11-22T12:52:13;4.07;;;1.20;;
5391;SDS011;2719;53.624;9.786;2023-11-22T12:54:39;3.40;;;1.33;;
5391;SDS011;2719;53.624;9.786;2023-11-22T12:57:10;2.10;;;0.77;;
5391;SDS011;2719;53.624;9.786;2023-11-22T12:59:37;2.70;;;0.70;;
5391;SDS011;2719;53.624;9.786;2023-11-22T13:02:04;4.03;;;0.90;;
5391;SDS011;2719;53.624;9.786;2023-11-22T13:04:32;7.77;;;0.80;;
5391;SDS011;2719;53.624;9.786;2023-11-22T13:06:58;2.10;;;0.70;;
5391;SDS011;2719;53.624;9.786;2023-11-22T13:09:26;2.27;;;0.60;;
5391;SDS011;2719;53.624;9.786;2023-11-22T13:11:54;1.97;;;0.67;;
5391;SDS011;2719;53.624;9.786;2023-11-22T13:14:21;3.17;;;0.70;;
5391;SDS011;2719;53.624;9.786;2023-11-22T13:16:48;1.90;;;0.70;;
5391;SDS011;2719;53.624;9.786;2023-11-22T13:19:14;1.77;;;0.67;;
5391;SDS011;2719;53.624;9.786;2023-11-22T13:21:41;2.20;;;0.70;;
5391;SDS011;2719;53.624;9.786;2023-11-22T13:24:09;3.37;;;0.60;;
5391;SDS011;2719;53.624;9.786;2023-11-22T13:26:40;1.50;;;0.73;;
5391;SDS011;2719;53.624;9.786;2023-11-22T13:29:07;1.70;;;0.70;;
5391;SDS011;2719;53.624;9.786;2023-11-22T13:31:34;6.60;;;0.80;;
5391;SDS011;2719;53.624;9.786;2023-11-22T13:34:00;2.70;;;0.73;;
5391;SDS011;2719;53.624;9.786;2023-11-22T13:36:27;2.30;;;0.60;;
5391;SDS011;2719;53.624;9.786;2023-11-22T13:38:54;2.30;;;0.70;;
5391;SDS011;2719;53.624;9.786;2023-11-22T13:41:21;2.53;;;1.23;;
5391;SDS011;2719;53.624;9.786;2023-11-22T13:43:51;2.10;;;1.00;;
5391;SDS011;2719;53.624;9.786;2023-11-22T13:46:17;2.47;;;0.80;;
5391;SDS011;2719;53.624;9.786;2023-11-22T13:48:45;2.83;;;0.93;;
5391;SDS011;2719;53.624;9.786;2023-11-22T13:51:11;2.23;;;0.70;;
5391;SDS011;2719;53.624;9.786;2023-11-22T13:53:38;3.63;;;0.70;;
5391;SDS011;2719;53.624;9.786;2023-11-22T13:56:09;2.03;;;0.70;;
5391;SDS011;2719;53.624;9.786;2023-11-22T13:58:36;1.63;;;0.70;;
5391;SDS011;2719;53.624;9.786;2023-11-22T14:01:04;3.03;;;0.60;;
5391;SDS011;2719;53.624;9.786;2023-11-22T14:03:35;4.13;;;1.00;;
5391;SDS011;2719;53.624;9.786;2023-11-22T14:06:02;2.10;;;0.87;;
5391;SDS011;2719;53.624;9.786;2023-11-22T14:08:29;5.20;;;0.73;;
5391;SDS011;2719;53.624;9.786;2023-11-22T14:10:57;2.80;;;0.80;;
5391;SDS011;2719;53.624;9.786;2023-11-22T14:13:23;2.83;;;0.80;;
5391;SDS011;2719;53.624;9.786;2023-11-22T14:15:50;2.50;;;0.60;;
5391;SDS011;2719;53.624;9.786;2023-11-22T14:18:18;2.73;;;0.70;;
5391;SDS011;2719;53.624;9.786;2023-11-22T14:20:44;5.07;;;0.60;;
5391;SDS011;2719;53.624;9.786;2023-11-22T14:23:11;1.63;;;0.60;;
5391;SDS011;2719;53.624;9.786;2023-11-22T14:25:38;4.20;;;0.80;;
5391;SDS011;2719;53.624;9.786;2023-11-22T14:28:05;2.50;;;0.60;;
5391;SDS011;2719;53.624;9.786;2023-11-22T14:30:33;1.90;;;0.70;;
5391;SDS011;2719;53.624;9.786;2023-11-22T14:33:01;1.63;;;0.70;;
5391;SDS011;2719;53.624;9.786;2023-11-22T14:35:32;1.73;;;0.60;;
5391;SDS011;2719;53.624;9.786;2023-11-22T14:38:00;2.50;;;1.03;;
5391;SDS011;2719;53.624;9.786;2023-11-22T14:40:28;2.43;;;0.90;;
5391;SDS011;2719;53.624;9.786;2023-11-22T14:42:56;1.77;;;0.67;;
5391;SDS011;2719;53.624;9.786;2023-11-22T14:45:22;3.03;;;0.70;;
5391;SDS011;2719;53.624;9.786;2023-11-22T14:47:51;1.93;;;0.70;;
5391;SDS011;2719;53.624;9.786;2023-11-22T14:50:18;2.03;;;0.50;;
5391;SDS011;2719;53.624;9.786;2023-11-22T14:52:47;2.20;;;0.70;;
5391;SDS011;2719;53.624;9.786;2023-11-22T14:55:14;2.93;;;0.60;;
5391;SDS011;2719;53.624;9.786;2023-11-22T14:57:42;2.90;;;0.67;;
5391;SDS011;2719;53.624;9.786;2023-11-22T15:00:09;3.20;;;0.60;;
5391;SDS011;2719;53.624;9.786;2023-11-22T15:02:38;2.80;;;0.90;;
5391;SDS011;2719;53.624;9.786;2023-11-22T15:05:07;2.23;;;0.67;;
5391;SDS011;2719;53.624;9.786;2023-11-22T15:07:35;1.53;;;0.67;;
5391;SDS011;2719;53.624;9.786;2023-11-22T15:10:04;4.43;;;0.70;;
5391;SDS011;2719;53.624;9.786;2023-11-22T15:12:31;1.30;;;0.70;;
5391;SDS011;2719;53.624;9.786;2023-11-22T15:14:58;1.90;;;0.80;;
5391;SDS011;2719;53.624;9.786;2023-11-22T15:17:25;2.70;;;0.80;;